createdAt,value
2023-02-26T00:01:26.111Z,9.83
2023-02-26T00:03:55.313Z,10.30
2023-02-26T00:06:24.456Z,12.23
2023-02-26T00:08:52.256Z,10.53
2023-02-26T00:11:20.637Z,11.40
2023-02-26T00:13:48.759Z,7.77
2023-02-26T00:16:27.989Z,11.80
2023-02-26T00:18:56.330Z,11.57
2023-02-26T00:21:25.823Z,10.43
2023-02-26T00:23:53.953Z,11.73
2023-02-26T00:26:22.225Z,12.80
2023-02-26T00:28:50.922Z,16.20
2023-02-26T00:31:24.618Z,10.30
2023-02-26T00:33:53.696Z,14.47
2023-02-26T00:36:25.729Z,15.23
2023-02-26T00:39:04.717Z,14.53
2023-02-26T00:41:32.739Z,13.93
2023-02-26T00:44:00.768Z,12.20
2023-02-26T00:46:39.746Z,13.73
2023-02-26T00:49:19.108Z,9.00
2023-02-26T00:51:50.388Z,4.90
2023-02-26T00:54:21.270Z,10.77
2023-02-26T00:56:49.629Z,10.70
2023-02-26T00:59:17.279Z,12.87
2023-02-26T01:01:46.706Z,13.20
2023-02-26T01:04:15.448Z,11.87
2023-02-26T01:06:45.750Z,11.37
2023-02-26T01:09:21.330Z,13.63
2023-02-26T01:11:49.731Z,7.47
2023-02-26T01:14:18.577Z,9.63
2023-02-26T01:16:55.420Z,7.90
2023-02-26T01:19:32.124Z,6.63
2023-02-26T01:22:06.921Z,5.90
2023-02-26T01:24:37.437Z,6.40
2023-02-26T01:27:05.948Z,9.03
2023-02-26T01:29:33.837Z,17.60
2023-02-26T01:32:08.223Z,5.50
2023-02-26T01:34:40.744Z,9.23
2023-02-26T01:37:21.666Z,7.03
2023-02-26T01:40:02.421Z,15.93
2023-02-26T01:42:36.869Z,14.57
2023-02-26T01:45:11.890Z,11.87
2023-02-26T01:47:49.317Z,8.00
2023-02-26T01:50:19.695Z,11.53
2023-02-26T01:53:22.678Z,9.03
2023-02-26T01:55:53.825Z,11.10
2023-02-26T01:58:22.721Z,10.67
2023-02-26T02:00:50.318Z,18.23
2023-02-26T02:03:20.046Z,14.07
2023-02-26T02:05:51.609Z,14.50
2023-02-26T02:08:20.703Z,13.57
2023-02-26T02:10:51.896Z,6.07
2023-02-26T02:13:36.346Z,7.20
2023-02-26T02:16:15.604Z,9.80
2023-02-26T02:18:55.009Z,9.37
2023-02-26T02:21:55.160Z,10.37
2023-02-26T02:24:33.635Z,6.60
2023-02-26T02:27:08.976Z,6.83
2023-02-26T02:29:58.349Z,10.53
2023-02-26T02:32:31.093Z,5.10
2023-02-26T02:35:07.770Z,4.53
2023-02-26T02:37:38.644Z,7.00
2023-02-26T02:40:10.323Z,5.03
2023-02-26T02:42:43.047Z,7.63
2023-02-26T02:45:18.504Z,8.47
2023-02-26T02:47:50.938Z,8.90
2023-02-26T02:50:23.498Z,12.30
2023-02-26T02:52:56.604Z,11.80
2023-02-26T02:55:27.917Z,11.87
2023-02-26T02:58:00.653Z,9.10
2023-02-26T03:00:31.035Z,9.13
2023-02-26T03:03:05.477Z,11.27
2023-02-26T03:05:33.091Z,14.37
2023-02-26T03:08:05.765Z,6.50
2023-02-26T03:10:34.433Z,12.07
2023-02-26T03:13:01.876Z,13.67
2023-02-26T03:15:42.908Z,14.60
2023-02-26T03:18:24.277Z,14.43
2023-02-26T03:21:00.603Z,16.17
2023-02-26T03:23:34.217Z,16.57
2023-02-26T03:26:12.278Z,13.90
2023-02-26T03:28:44.787Z,16.80
2023-02-26T03:31:19.028Z,15.83
2023-02-26T03:33:59.767Z,14.93
2023-02-26T03:36:31.775Z,12.60
2023-02-26T03:39:05.568Z,14.33
2023-02-26T03:41:37.342Z,9.63
2023-02-26T03:44:10.614Z,9.83
2023-02-26T03:46:42.131Z,8.43
2023-02-26T03:49:15.902Z,5.47
2023-02-26T03:51:44.721Z,8.50
2023-02-26T03:54:19.686Z,9.33
2023-02-26T03:56:48.735Z,11.97
2023-02-26T03:59:17.950Z,11.50
2023-02-26T04:01:50.612Z,6.20
2023-02-26T04:04:25.363Z,7.87
2023-02-26T04:06:55.055Z,11.30
2023-02-26T04:09:22.983Z,8.97
2023-02-26T04:11:52.160Z,9.00
2023-02-26T04:14:19.778Z,9.70
2023-02-26T04:16:48.231Z,7.43
2023-02-26T04:19:15.728Z,9.10
2023-02-26T04:21:44.626Z,8.43
2023-02-26T04:24:12.302Z,9.57
2023-02-26T04:26:39.802Z,8.30
2023-02-26T04:29:07.306Z,6.70
2023-02-26T04:31:34.904Z,4.47
2023-02-26T04:34:02.651Z,4.93
2023-02-26T04:36:30.136Z,6.97
2023-02-26T04:38:59.555Z,6.07
2023-02-26T04:41:27.079Z,6.87
2023-02-26T04:43:54.626Z,4.27
2023-02-26T04:46:22.286Z,4.90
2023-02-26T04:48:49.848Z,7.10
2023-02-26T04:51:18.054Z,6.60
2023-02-26T04:53:45.553Z,12.20
2023-02-26T04:56:14.485Z,12.67
2023-02-26T04:58:42.048Z,14.70
2023-02-26T05:01:09.532Z,13.77
2023-02-26T05:03:37.188Z,12.03
2023-02-26T05:06:04.986Z,14.47
2023-02-26T05:08:32.430Z,13.17
2023-02-26T05:10:59.946Z,8.63
2023-02-26T05:13:28.768Z,4.90
2023-02-26T05:15:56.292Z,5.77
2023-02-26T05:18:24.404Z,7.20
2023-02-26T05:20:54.531Z,8.90
2023-02-26T05:23:22.743Z,9.57
2023-02-26T05:25:50.666Z,9.53
2023-02-26T05:28:18.370Z,8.33
2023-02-26T05:30:47.218Z,6.60
2023-02-26T05:33:14.743Z,10.13
2023-02-26T05:35:42.252Z,7.07
2023-02-26T05:38:09.736Z,6.63
2023-02-26T05:40:37.232Z,7.77
2023-02-26T05:43:04.747Z,9.23
2023-02-26T05:45:32.231Z,10.33
2023-02-26T05:48:01.466Z,12.10
2023-02-26T05:50:30.362Z,6.90
2023-02-26T05:52:57.925Z,8.90
2023-02-26T05:55:25.715Z,10.43
2023-02-26T05:57:53.170Z,11.17
2023-02-26T06:00:21.243Z,10.10
2023-02-26T06:02:48.738Z,10.73
2023-02-26T06:05:17.658Z,9.73
2023-02-26T06:07:46.262Z,8.40
2023-02-26T06:10:14.668Z,15.27
2023-02-26T06:12:42.155Z,13.37
2023-02-26T06:15:10.926Z,15.83
2023-02-26T06:17:40.671Z,12.87
2023-02-26T06:20:09.417Z,10.13
2023-02-26T06:22:38.216Z,11.00
2023-02-26T06:25:06.562Z,10.70
2023-02-26T06:27:34.075Z,8.43
2023-02-26T06:30:01.585Z,9.63
2023-02-26T06:32:30.661Z,14.87
2023-02-26T06:34:58.390Z,13.67
2023-02-26T06:37:25.998Z,9.20
2023-02-26T06:39:54.965Z,12.87
2023-02-26T06:42:22.948Z,14.57
2023-02-26T06:44:50.430Z,12.63
2023-02-26T06:47:18.099Z,9.37
2023-02-26T06:49:45.585Z,8.50
2023-02-26T06:52:13.364Z,5.60
2023-02-26T06:54:40.854Z,8.87
2023-02-26T06:57:09.806Z,11.10
2023-02-26T06:59:37.311Z,8.90
2023-02-26T07:02:04.929Z,13.50
2023-02-26T07:04:32.407Z,11.33
2023-02-26T07:06:59.871Z,9.17
2023-02-26T07:09:27.349Z,6.13
2023-02-26T07:11:54.842Z,4.73
2023-02-26T07:14:23.702Z,5.07
2023-02-26T07:16:51.282Z,5.70
2023-02-26T07:19:18.811Z,12.00
2023-02-26T07:21:46.588Z,4.37
2023-02-26T07:24:14.048Z,7.53
2023-02-26T07:26:41.605Z,8.07
2023-02-26T07:29:09.297Z,4.93
2023-02-26T07:31:38.234Z,6.50
2023-02-26T07:34:05.745Z,6.47
2023-02-26T07:36:33.910Z,9.20
2023-02-26T07:39:01.419Z,6.77
2023-02-26T07:41:29.142Z,4.97
2023-02-26T07:43:56.601Z,3.63
2023-02-26T07:46:24.423Z,2.70
2023-02-26T07:48:53.540Z,2.60
2023-02-26T07:51:21.045Z,2.73
2023-02-26T07:53:48.501Z,2.50
2023-02-26T07:56:16.037Z,2.10
2023-02-26T07:58:43.537Z,2.60
2023-02-26T08:01:11.042Z,2.10
2023-02-26T08:03:38.532Z,2.07
2023-02-26T08:06:08.405Z,2.43
2023-02-26T08:08:35.874Z,2.93
2023-02-26T08:11:03.562Z,2.57
2023-02-26T08:13:31.122Z,2.23
2023-02-26T08:15:58.690Z,2.33
2023-02-26T08:18:26.222Z,3.27
2023-02-26T08:20:53.734Z,2.60
2023-02-26T08:23:22.641Z,2.80
2023-02-26T08:25:50.363Z,2.33
2023-02-26T08:28:17.861Z,2.43
2023-02-26T08:30:45.323Z,2.47
2023-02-26T08:33:12.797Z,2.40
2023-02-26T08:35:40.292Z,2.57
2023-02-26T08:38:07.750Z,2.10
2023-02-26T08:40:36.533Z,2.13
2023-02-26T08:43:04.420Z,2.30
2023-02-26T08:45:31.916Z,2.10
2023-02-26T08:47:59.363Z,2.67
2023-02-26T08:50:28.168Z,2.20
2023-02-26T08:52:55.827Z,1.97
2023-02-26T08:55:23.713Z,2.33
2023-02-26T08:57:52.482Z,2.70
2023-02-26T09:00:20.749Z,2.57
2023-02-26T09:02:48.279Z,3.07
2023-02-26T09:05:16.246Z,3.47
2023-02-26T09:07:44.795Z,3.50
2023-02-26T09:10:13.597Z,2.67
2023-02-26T09:12:41.071Z,5.03
2023-02-26T09:15:12.002Z,4.27
2023-02-26T09:17:39.969Z,2.43
2023-02-26T09:20:08.987Z,3.63
2023-02-26T09:22:36.662Z,2.90
2023-02-26T09:25:04.585Z,2.93
2023-02-26T09:27:32.063Z,3.67
2023-02-26T09:29:59.687Z,3.77
2023-02-26T09:32:28.628Z,2.73
2023-02-26T09:34:56.141Z,3.70
2023-02-26T09:37:23.685Z,3.37
2023-02-26T09:39:53.916Z,3.40
2023-02-26T09:42:35.253Z,2.10
2023-02-26T09:45:04.123Z,3.50
2023-02-26T09:47:40.821Z,2.03
2023-02-26T09:50:17.233Z,2.27
2023-02-26T09:52:49.744Z,3.67
2023-02-26T09:55:25.123Z,2.23
2023-02-26T09:57:55.347Z,3.50
2023-02-26T10:00:28.227Z,2.90
2023-02-26T10:03:17.645Z,3.30
2023-02-26T10:06:06.327Z,2.03
2023-02-26T10:08:39.989Z,2.40
2023-02-26T10:11:14.898Z,4.23
2023-02-26T10:13:57.269Z,5.40
2023-02-26T10:16:29.585Z,3.40
2023-02-26T10:19:04.933Z,3.40
2023-02-26T10:21:37.695Z,2.13
2023-02-26T10:24:10.979Z,4.63
2023-02-26T10:26:43.766Z,2.77
2023-02-26T10:29:19.662Z,2.57
2023-02-26T10:32:02.084Z,3.60
2023-02-26T10:34:36.064Z,3.50
2023-02-26T10:37:14.879Z,4.10
2023-02-26T10:39:48.422Z,4.03
2023-02-26T10:42:21.357Z,2.97
2023-02-26T10:44:57.475Z,3.87
2023-02-26T10:47:36.521Z,3.07
2023-02-26T10:50:10.619Z,5.77
2023-02-26T10:52:38.588Z,1.87
2023-02-26T10:55:27.159Z,3.30
2023-02-26T10:58:03.921Z,1.80
2023-02-26T11:00:31.721Z,2.10
2023-02-26T11:02:59.472Z,2.10
2023-02-26T11:05:30.405Z,1.70
2023-02-26T11:08:02.291Z,1.60
2023-02-26T11:10:40.034Z,1.47
2023-02-26T11:13:07.479Z,1.67
2023-02-26T11:15:35.155Z,1.60
2023-02-26T11:18:03.151Z,1.97
2023-02-26T11:20:37.389Z,2.97
2023-02-26T11:23:07.517Z,1.70
2023-02-26T11:25:36.335Z,4.40
2023-02-26T11:28:07.583Z,2.40
2023-02-26T11:30:38.824Z,3.60
2023-02-26T11:33:17.299Z,2.13
2023-02-26T11:35:47.658Z,1.90
2023-02-26T11:38:21.255Z,8.43
2023-02-26T11:40:53.196Z,1.23
2023-02-26T11:43:23.605Z,1.77
2023-02-26T11:45:56.624Z,2.23
2023-02-26T11:48:27.171Z,1.90
2023-02-26T11:50:59.981Z,1.77
2023-02-26T11:53:32.557Z,1.73
2023-02-26T11:56:02.803Z,2.40
2023-02-26T11:58:35.362Z,2.50
2023-02-26T12:01:03.862Z,2.90
2023-02-26T12:03:34.296Z,2.90
2023-02-26T12:06:04.357Z,3.50
2023-02-26T12:08:38.231Z,2.33
2023-02-26T12:11:19.186Z,2.00
2023-02-26T12:14:02.594Z,2.43
2023-02-26T12:16:39.529Z,4.07
2023-02-26T12:19:14.461Z,2.70
2023-02-26T12:22:04.083Z,1.70
2023-02-26T12:25:17.954Z,3.30
2023-02-26T12:28:11.443Z,1.17
2023-02-26T12:30:52.417Z,1.30
2023-02-26T12:33:33.260Z,1.70
2023-02-26T12:36:17.524Z,1.57
2023-02-26T12:38:52.881Z,1.47
2023-02-26T12:41:44.961Z,5.90
2023-02-26T12:44:24.802Z,1.10
2023-02-26T12:47:07.957Z,1.70
2023-02-26T12:50:07.432Z,2.03
2023-02-26T12:52:52.343Z,2.77
2023-02-26T12:55:37.043Z,2.87
2023-02-26T12:58:22.922Z,2.33
2023-02-26T13:01:10.090Z,2.40
2023-02-26T13:04:03.560Z,6.63
2023-02-26T13:06:49.185Z,6.23
2023-02-26T13:09:31.765Z,1.70
2023-02-26T13:12:25.609Z,1.93
2023-02-26T13:15:03.108Z,1.90
2023-02-26T13:17:38.839Z,2.40
2023-02-26T13:20:16.414Z,2.20
2023-02-26T13:22:48.353Z,2.20
2023-02-26T13:25:25.426Z,2.10
2023-02-26T13:27:58.430Z,1.90
2023-02-26T13:30:31.084Z,1.90
2023-02-26T13:33:00.421Z,3.03
2023-02-26T13:35:30.921Z,2.80
2023-02-26T13:38:01.388Z,3.90
2023-02-26T13:40:44.404Z,4.37
2023-02-26T13:43:24.218Z,4.40
2023-02-26T13:46:00.740Z,2.70
2023-02-26T13:48:41.989Z,2.90
2023-02-26T13:51:15.163Z,1.50
2023-02-26T13:54:00.507Z,2.87
2023-02-26T13:56:55.385Z,1.30
2023-02-26T13:59:32.574Z,1.10
2023-02-26T14:02:03.320Z,1.43
2023-02-26T14:04:32.687Z,1.30
2023-02-26T14:07:01.406Z,1.83
2023-02-26T14:09:44.407Z,1.40
2023-02-26T14:12:26.537Z,1.07
2023-02-26T14:15:28.786Z,2.10
2023-02-26T14:18:06.686Z,1.73
2023-02-26T14:20:36.483Z,1.40
2023-02-26T14:23:37.682Z,1.60
2023-02-26T14:26:12.633Z,1.40
2023-02-26T14:28:46.504Z,2.70
2023-02-26T14:31:22.163Z,2.33
2023-02-26T14:34:10.789Z,28.50
2023-02-26T14:36:45.421Z,3.13
2023-02-26T14:39:24.050Z,2.80
2023-02-26T14:41:56.912Z,2.20
2023-02-26T14:44:28.010Z,2.20
2023-02-26T14:46:57.989Z,2.43
2023-02-26T14:49:29.277Z,2.47
2023-02-26T14:52:35.844Z,1.93
2023-02-26T14:55:24.425Z,1.57
2023-02-26T14:58:07.676Z,2.13
2023-02-26T15:00:44.358Z,1.60
2023-02-26T15:03:44.245Z,3.47
2023-02-26T15:06:28.096Z,1.90
2023-02-26T15:09:08.345Z,1.33
2023-02-26T15:11:52.045Z,1.77
2023-02-26T15:14:41.787Z,2.03
2023-02-26T15:17:22.113Z,2.37
2023-02-26T15:20:05.561Z,2.90
2023-02-26T15:22:47.708Z,4.30
2023-02-26T15:25:24.873Z,3.27
2023-02-26T15:27:52.717Z,1.97
2023-02-26T15:30:20.602Z,2.30
2023-02-26T15:32:48.544Z,2.27
2023-02-26T15:35:20.229Z,2.20
2023-02-26T15:37:50.589Z,3.00
2023-02-26T15:40:19.352Z,2.90
2023-02-26T15:42:52.702Z,3.20
2023-02-26T15:45:25.145Z,2.80
2023-02-26T15:47:56.340Z,3.97
2023-02-26T15:50:29.058Z,3.13
2023-02-26T15:53:00.593Z,1.97
2023-02-26T15:55:32.516Z,2.67
2023-02-26T15:58:00.863Z,2.30
2023-02-26T16:00:28.599Z,2.70
2023-02-26T16:02:58.629Z,2.53
2023-02-26T16:05:29.112Z,2.13
2023-02-26T16:07:56.933Z,4.53
2023-02-26T16:10:37.988Z,2.30
2023-02-26T16:13:08.550Z,2.17
2023-02-26T16:15:39.000Z,2.30
2023-02-26T16:18:08.595Z,2.37
2023-02-26T16:20:40.990Z,4.87
2023-02-26T16:23:13.464Z,2.37
2023-02-26T16:25:49.699Z,2.10
2023-02-26T16:28:21.143Z,2.33
2023-02-26T16:30:54.060Z,1.60
2023-02-26T16:33:24.796Z,1.97
2023-02-26T16:35:57.888Z,1.60
2023-02-26T16:38:34.432Z,1.77
2023-02-26T16:41:09.213Z,2.10
2023-02-26T16:43:51.356Z,17.07
2023-02-26T16:46:23.480Z,2.50
2023-02-26T16:48:54.333Z,3.10
2023-02-26T16:51:25.326Z,3.37
2023-02-26T16:53:58.074Z,2.43
2023-02-26T16:56:29.418Z,2.37
2023-02-26T16:59:04.124Z,2.00
2023-02-26T17:01:37.040Z,2.40
2023-02-26T17:04:06.392Z,3.03
2023-02-26T17:06:38.954Z,7.43
2023-02-26T17:09:10.172Z,4.73
2023-02-26T17:11:43.435Z,2.67
2023-02-26T17:14:18.988Z,3.43
2023-02-26T17:16:47.423Z,3.03
2023-02-26T17:19:14.976Z,2.87
2023-02-26T17:21:48.285Z,2.70
2023-02-26T17:24:19.033Z,3.30
2023-02-26T17:26:47.968Z,2.73
2023-02-26T17:29:20.160Z,2.43
2023-02-26T17:31:48.787Z,3.37
2023-02-26T17:34:16.318Z,2.77
2023-02-26T17:36:45.114Z,2.93
2023-02-26T17:39:14.537Z,3.43
2023-02-26T17:41:44.699Z,2.93
2023-02-26T17:44:12.469Z,5.63
2023-02-26T17:46:39.958Z,3.33
2023-02-26T17:49:07.434Z,2.70
2023-02-26T17:51:34.904Z,2.20
2023-02-26T17:54:03.758Z,2.30
2023-02-26T17:56:33.587Z,2.40
2023-02-26T17:59:02.323Z,2.37
2023-02-26T18:01:30.403Z,2.43
2023-02-26T18:04:00.730Z,2.60
2023-02-26T18:06:30.985Z,3.03
2023-02-26T18:08:58.454Z,2.50
2023-02-26T18:11:27.636Z,3.30
2023-02-26T18:13:55.411Z,2.60
2023-02-26T18:16:28.078Z,3.13
2023-02-26T18:18:55.805Z,3.17
2023-02-26T18:21:23.330Z,2.90
2023-02-26T18:23:50.794Z,2.90
2023-02-26T18:26:22.717Z,3.33
2023-02-26T18:28:51.747Z,3.10
2023-02-26T18:31:20.252Z,8.30
2023-02-26T18:33:47.997Z,6.97
2023-02-26T18:36:21.710Z,3.03
2023-02-26T18:38:49.346Z,4.37
2023-02-26T18:41:16.805Z,6.60
2023-02-26T18:43:44.254Z,4.70
2023-02-26T18:46:13.110Z,3.87
2023-02-26T18:48:40.627Z,4.30
2023-02-26T18:51:08.179Z,4.13
2023-02-26T18:53:35.729Z,4.10
2023-02-26T18:56:16.114Z,5.15
2023-02-26T18:58:43.725Z,3.97
2023-02-26T19:01:11.234Z,4.27
2023-02-26T19:03:40.083Z,3.73
2023-02-26T19:06:09.512Z,4.47
2023-02-26T19:08:37.467Z,4.97
2023-02-26T19:11:05.222Z,9.83
2023-02-26T19:13:32.738Z,5.07
2023-02-26T19:16:00.247Z,4.50
2023-02-26T19:18:27.996Z,3.63
2023-02-26T19:20:56.886Z,5.73
2023-02-26T19:23:24.987Z,3.97
2023-02-26T19:25:53.059Z,3.30
2023-02-26T19:28:20.973Z,4.23
2023-02-26T19:30:48.472Z,4.00
2023-02-26T19:33:16.157Z,4.23
2023-02-26T19:35:43.888Z,4.83
2023-02-26T19:38:13.345Z,5.33
2023-02-26T19:40:40.823Z,6.70
2023-02-26T19:43:08.340Z,7.53
2023-02-26T19:45:35.839Z,5.50
2023-02-26T19:48:03.400Z,6.17
2023-02-26T19:50:30.844Z,6.57
2023-02-26T19:52:58.541Z,8.23
2023-02-26T19:55:27.394Z,5.73
2023-02-26T19:57:54.917Z,6.10
2023-02-26T20:00:23.312Z,7.23
2023-02-26T20:02:51.013Z,6.77
2023-02-26T20:05:18.589Z,6.20
2023-02-26T20:07:48.025Z,5.80
2023-02-26T20:10:16.574Z,7.93
2023-02-26T20:12:46.324Z,6.07
2023-02-26T20:15:14.343Z,6.20
2023-02-26T20:17:42.125Z,6.00
2023-02-26T20:20:10.939Z,3.20
2023-02-26T20:22:38.401Z,3.00
2023-02-26T20:25:06.572Z,2.53
2023-02-26T20:27:34.244Z,3.37
2023-02-26T20:30:03.097Z,3.63
2023-02-26T20:32:30.658Z,3.50
2023-02-26T20:34:58.262Z,2.83
2023-02-26T20:37:25.879Z,3.30
2023-02-26T20:39:53.364Z,2.50
2023-02-26T20:42:20.845Z,2.67
2023-02-26T20:44:48.428Z,2.70
2023-02-26T20:47:17.280Z,2.47
2023-02-26T20:49:44.820Z,2.70
2023-02-26T20:52:12.312Z,3.77
2023-02-26T20:54:40.275Z,2.63
2023-02-26T20:57:07.794Z,2.07
2023-02-26T20:59:35.278Z,2.40
2023-02-26T21:02:02.934Z,3.63
2023-02-26T21:04:31.782Z,3.83
2023-02-26T21:07:12.563Z,2.50
2023-02-26T21:09:40.140Z,3.73
2023-02-26T21:12:07.695Z,2.83
2023-02-26T21:14:36.251Z,2.60
2023-02-26T21:17:04.370Z,2.87
2023-02-26T21:19:33.213Z,2.70
2023-02-26T21:22:01.777Z,2.60
2023-02-26T21:24:29.634Z,2.80
2023-02-26T21:26:57.421Z,3.93
2023-02-26T21:29:25.145Z,3.33
2023-02-26T21:31:53.581Z,3.43
2023-02-26T21:34:33.040Z,3.13
2023-02-26T21:37:02.836Z,3.37
2023-02-26T21:39:30.700Z,2.73
2023-02-26T21:41:59.213Z,2.63
2023-02-26T21:44:27.602Z,3.10
2023-02-26T21:46:57.178Z,3.20
2023-02-26T21:49:24.993Z,4.03
2023-02-26T21:51:52.925Z,4.27
2023-02-26T21:54:21.990Z,16.90
2023-02-26T21:56:49.595Z,5.23
2023-02-26T21:59:17.106Z,3.47
2023-02-26T22:01:45.471Z,3.33
2023-02-26T22:04:13.229Z,3.57
2023-02-26T22:06:40.718Z,3.87
2023-02-26T22:09:08.302Z,3.40
2023-02-26T22:11:37.140Z,3.20
2023-02-26T22:14:04.654Z,2.90
2023-02-26T22:16:32.196Z,3.50
2023-02-26T22:18:59.730Z,3.67
2023-02-26T22:21:27.547Z,3.33
2023-02-26T22:23:55.415Z,4.00
2023-02-26T22:26:22.964Z,3.07
2023-02-26T22:28:51.911Z,3.67
2023-02-26T22:31:19.471Z,3.67
2023-02-26T22:33:47.016Z,3.53
2023-02-26T22:36:14.473Z,3.70
2023-02-26T22:38:42.120Z,3.37
2023-02-26T22:41:09.613Z,2.73
2023-02-26T22:43:37.169Z,4.20
2023-02-26T22:46:06.263Z,3.20
2023-02-26T22:48:33.740Z,3.07
2023-02-26T22:51:01.206Z,3.10
2023-02-26T22:53:28.677Z,6.57
2023-02-26T22:55:56.164Z,4.73
2023-02-26T22:58:23.651Z,3.37
2023-02-26T23:00:52.703Z,3.90
2023-02-26T23:03:21.515Z,3.60
2023-02-26T23:05:49.090Z,2.80
2023-02-26T23:08:16.553Z,3.73
2023-02-26T23:10:45.791Z,3.50
2023-02-26T23:13:13.385Z,2.70
2023-02-26T23:15:40.908Z,2.90
2023-02-26T23:18:18.019Z,2.54
2023-02-26T23:20:48.164Z,2.70
2023-02-26T23:23:16.096Z,2.87
2023-02-26T23:25:43.960Z,2.80
2023-02-26T23:28:12.086Z,3.10
2023-02-26T23:30:40.621Z,3.53
2023-02-26T23:33:08.546Z,3.77
2023-02-26T23:35:36.258Z,3.27
2023-02-26T23:38:06.947Z,2.80
2023-02-26T23:40:35.174Z,4.43
2023-02-26T23:43:02.656Z,3.00
2023-02-26T23:45:30.167Z,16.43
2023-02-26T23:47:57.638Z,3.53
2023-02-26T23:50:25.121Z,3.00
2023-02-26T23:52:53.233Z,4.13
2023-02-26T23:55:22.046Z,2.67
2023-02-26T23:57:49.559Z,3.10
